Time;durP1;ratioP1;P1;durP2;ratioP2;P2;SDS_P1;SDS_P2;PMS_P1;PMS_P2;Temp;Humidity;BMP_temperature;BMP_pressure;BME280_temperature;BME280_humidity;BME280_pressure;Samples;Min_cycle;Max_cycle;Signal;HPM_P1;HPM_P2
2021/08/28 00:01:14;;;;;;;1.95;0.70;;;;;;;13.95;83.44;99462.41;2294161;67;20162;-72
2021/08/28 00:04:17;;;;;;;2.84;1.14;;;;;;;13.91;83.72;99472.91;2290811;69;20217;-74
2021/08/28 00:07:19;;;;;;;3.03;0.80;;;;;;;13.90;83.59;99468.56;2290880;69;20268;-72
2021/08/28 00:10:22;;;;;;;4.72;0.96;;;;;;;13.93;83.54;99470.25;2290605;69;20154;-72
2021/08/28 00:13:25;;;;;;;2.40;0.88;;;;;;;13.95;83.63;99468.50;2291022;69;20236;-72
2021/08/28 00:16:27;;;;;;;5.18;0.80;;;;;;;13.94;83.66;99460.69;2290433;67;22881;-71
2021/08/28 00:19:30;;;;;;;4.91;0.95;;;;;;;13.96;83.71;99462.38;2291653;69;20178;-72
2021/08/28 00:22:33;;;;;;;2.65;0.81;;;;;;;13.96;83.72;99459.75;2290540;69;20752;-72
2021/08/28 00:25:36;;;;;;;2.49;1.14;;;;;;;13.96;83.72;99456.28;2289934;69;21214;-72
2021/08/28 00:28:38;;;;;;;2.22;0.74;;;;;;;13.93;83.81;99454.59;2290218;69;20753;-72
2021/08/28 00:31:41;;;;;;;2.83;0.63;;;;;;;13.94;83.90;99455.47;2292843;67;20814;-72
2021/08/28 00:34:43;;;;;;;4.16;2.04;;;;;;;13.95;84.01;99452.81;2296630;69;20175;-72
2021/08/28 00:37:46;;;;;;;4.84;0.81;;;;;;;13.96;83.90;99454.53;2298123;69;20174;-72
2021/08/28 00:40:49;;;;;;;4.44;0.90;;;;;;;13.98;83.89;99450.16;2297655;69;20165;-71
2021/08/28 00:43:52;;;;;;;3.25;0.94;;;;;;;13.97;83.89;99453.66;2292172;69;21030;-72
2021/08/28 00:46:56;;;;;;;2.66;1.10;;;;;;;13.98;83.66;99452.75;2296596;69;22367;-71
2021/08/28 00:49:58;;;;;;;2.04;0.69;;;;;;;13.99;83.63;99459.72;2297585;69;20146;-72
2021/08/28 00:53:09;;;;;;;2.56;0.86;;;;;;;13.97;83.71;99456.25;2297005;69;20713;-73
2021/08/28 00:56:12;;;;;;;3.67;1.24;;;;;;;13.96;83.41;99457.16;2297509;69;20146;-72
2021/08/28 00:59:14;;;;;;;2.96;0.85;;;;;;;13.96;82.92;99451.94;2297995;69;20206;-72
2021/08/28 01:02:20;;;;;;;2.78;0.84;;;;;;;13.91;82.99;99452.03;2296418;67;21749;-72
2021/08/28 01:05:31;;;;;;;2.66;0.71;;;;;;;13.87;83.00;99452.97;2297831;69;20239;-72
2021/08/28 01:08:40;;;;;;;1.88;0.69;;;;;;;13.84;82.89;99457.38;2292908;69;20161;-72
2021/08/28 01:11:47;;;;;;;2.09;0.65;;;;;;;13.79;82.85;99456.56;2297021;69;20153;-72
2021/08/28 01:15:08;;;;;;;2.08;0.70;;;;;;;13.74;83.22;99453.19;2298071;69;20153;-71
2021/08/28 01:18:14;;;;;;;2.95;0.74;;;;;;;13.68;83.32;99448.94;2296022;68;24480;-72
2021/08/28 01:21:30;;;;;;;1.26;0.68;;;;;;;13.63;83.54;99452.47;2297327;69;20145;-72
2021/08/28 01:24:35;;;;;;;2.39;0.70;;;;;;;13.53;83.91;99447.44;2297126;69;20219;-73
2021/08/28 01:27:46;;;;;;;3.66;0.91;;;;;;;13.52;84.18;99447.44;2296093;69;20150;-72
2021/08/28 01:30:49;;;;;;;2.55;0.60;;;;;;;13.50;84.50;99431.81;2297424;69;20154;-72
2021/08/28 01:33:52;;;;;;;1.98;0.59;;;;;;;13.52;84.54;99435.28;2297525;67;20177;-72
2021/08/28 01:36:56;;;;;;;0.86;0.60;;;;;;;13.54;84.78;99438.72;2297153;69;20162;-72
2021/08/28 01:40:03;;;;;;;2.63;0.77;;;;;;;13.50;85.20;99431.81;2296963;69;20187;-72
2021/08/28 01:43:07;;;;;;;2.47;0.77;;;;;;;13.52;85.36;99432.66;2298191;69;20183;-72
2021/08/28 01:46:11;;;;;;;2.85;0.77;;;;;;;13.53;85.29;99425.69;2295956;67;23615;-72
2021/08/28 01:49:15;;;;;;;1.85;0.90;;;;;;;13.51;85.09;99435.28;2296910;69;20321;-74
2021/08/28 01:52:17;;;;;;;3.42;0.93;;;;;;;13.48;84.80;99432.75;2297826;69;20149;-72
2021/08/28 01:55:20;;;;;;;3.11;0.85;;;;;;;13.47;84.48;99441.44;2295746;69;20158;-72
2021/08/28 01:58:22;;;;;;;1.96;0.70;;;;;;;13.46;84.57;99437.94;2291726;69;20162;-71
2021/08/28 02:01:26;;;;;;;4.35;1.06;;;;;;;13.45;84.67;99437.97;2296277;67;20207;-71
2021/08/28 02:04:29;;;;;;;3.00;0.91;;;;;;;13.46;84.59;99443.16;2299125;69;20201;-72
2021/08/28 02:08:00;;;;;;;3.06;0.66;;;;;;;13.47;84.78;99441.44;2298252;69;20200;-72
2021/08/28 02:11:13;;;;;;;3.08;0.89;;;;;;;13.45;84.84;99445.81;2298096;69;20211;-72
2021/08/28 02:14:21;;;;;;;2.91;0.66;;;;;;;13.43;85.01;99450.19;2299591;69;20146;-72
2021/08/28 02:17:26;;;;;;;0.88;0.70;;;;;;;13.44;85.22;99452.75;2292928;67;20209;-72
2021/08/28 02:20:33;;;;;;;1.76;0.93;;;;;;;13.46;85.35;99452.75;2299816;69;20255;-72
2021/08/28 02:23:46;;;;;;;2.83;0.70;;;;;;;13.48;85.65;99459.69;2299651;69;20180;-72
2021/08/28 02:27:00;;;;;;;3.60;0.99;;;;;;;13.55;85.44;99455.22;2298890;69;20173;-72
2021/08/28 02:30:09;;;;;;;3.36;0.80;;;;;;;13.61;85.57;99431.63;2297870;69;20154;-72
2021/08/28 02:33:12;;;;;;;1.69;0.69;;;;;;;13.63;85.68;99432.47;2298243;67;20415;-72
2021/08/28 02:36:17;;;;;;;3.41;0.82;;;;;;;13.65;85.50;99432.47;2298263;69;20238;-72
2021/08/28 02:39:21;;;;;;;2.47;0.61;;;;;;;13.64;85.50;99433.34;2298466;69;20185;-72
2021/08/28 02:42:23;;;;;;;2.29;1.00;;;;;;;13.59;85.32;99433.41;2299881;69;20184;-72
2021/08/28 02:45:26;;;;;;;2.94;0.75;;;;;;;13.54;84.96;99441.31;2298105;67;20458;-72
2021/08/28 02:48:33;;;;;;;1.66;1.05;;;;;;;13.48;84.61;99440.56;2299046;69;20899;-73
2021/08/28 02:51:37;;;;;;;5.10;0.99;;;;;;;13.39;84.46;99431.13;2300013;69;20204;-72
2021/08/28 02:54:41;;;;;;;3.03;1.17;;;;;;;13.32;84.30;99431.25;2298909;69;20203;-72
2021/08/28 02:57:47;;;;;;;3.83;0.84;;;;;;;13.24;84.31;99431.34;2300434;69;20189;-72
2021/08/28 03:00:51;;;;;;;3.49;0.81;;;;;;;13.17;84.15;99434.91;2297238;67;20149;-72
2021/08/28 03:03:55;;;;;;;4.57;0.91;;;;;;;13.10;84.09;99433.25;2298732;69;20170;-72
2021/08/28 03:06:58;;;;;;;1.79;0.90;;;;;;;13.01;84.35;99429.88;2297210;69;20142;-72
2021/08/28 03:10:05;;;;;;;2.22;0.90;;;;;;;12.95;84.40;99429.13;2298882;69;20671;-73
2021/08/28 03:13:07;;;;;;;2.85;1.00;;;;;;;12.89;84.37;99442.22;2298131;69;20197;-72
2021/08/28 03:16:12;;;;;;;3.59;0.89;;;;;;;12.81;84.26;99437.13;2296467;67;21930;-73
2021/08/28 03:19:19;;;;;;;3.10;0.79;;;;;;;12.76;84.44;99448.50;2298852;69;20169;-72
2021/08/28 03:22:23;;;;;;;3.92;1.00;;;;;;;12.70;84.61;99457.22;2297553;69;20237;-72
2021/08/28 03:25:26;;;;;;;6.85;0.94;;;;;;;12.65;84.88;99446.84;2297954;69;20739;-72
2021/08/28 03:28:32;;;;;;;2.74;0.81;;;;;;;12.64;85.06;99459.91;2297668;69;20149;-72
2021/08/28 03:31:35;;;;;;;2.63;1.55;;;;;;;12.67;85.32;99459.88;2296708;67;20344;-72
2021/08/28 03:34:38;;;;;;;3.74;1.25;;;;;;;12.69;85.68;99451.16;2297130;69;21189;-73
2021/08/28 03:37:41;;;;;;;5.09;1.15;;;;;;;12.71;85.93;99448.53;2297317;69;20149;-73
2021/08/28 03:40:44;;;;;;;2.80;1.00;;;;;;;12.69;86.13;99451.16;2297236;69;20171;-73
2021/08/28 03:43:47;;;;;;;2.54;0.74;;;;;;;12.71;86.11;99446.78;2297882;69;20173;-73
2021/08/28 03:46:50;;;;;;;4.38;1.09;;;;;;;12.70;86.25;99441.59;2297154;67;20512;-72
2021/08/28 03:49:53;;;;;;;2.97;1.02;;;;;;;12.69;86.29;99443.31;2298795;69;20795;-73
2021/08/28 03:52:55;;;;;;;2.31;0.77;;;;;;;12.69;86.18;99437.25;2297065;69;20197;-73
2021/08/28 03:55:59;;;;;;;4.05;1.20;;;;;;;12.70;86.07;99437.25;2298702;69;21123;-73
2021/08/28 03:59:02;;;;;;;3.16;0.93;;;;;;;12.72;86.11;99450.25;2296509;69;20154;-73
2021/08/28 04:02:05;;;;;;;6.07;1.48;;;;;;;12.71;86.40;99451.13;2295391;67;21735;-73
2021/08/28 04:05:08;;;;;;;4.13;1.10;;;;;;;12.72;86.71;99450.25;2296667;69;20174;-74
2021/08/28 04:08:11;;;;;;;3.60;1.08;;;;;;;12.75;86.67;99459.75;2297955;69;20141;-73
2021/08/28 04:11:15;;;;;;;3.74;1.00;;;;;;;12.77;86.46;99471.91;2298189;69;20179;-72
2021/08/28 04:14:17;;;;;;;3.06;0.88;;;;;;;12.79;86.57;99467.53;2297131;69;20162;-72
2021/08/28 04:17:20;;;;;;;2.80;1.17;;;;;;;12.82;86.63;99467.50;2295746;67;21943;-73
2021/08/28 04:20:22;;;;;;;3.28;1.20;;;;;;;12.82;86.62;99464.03;2297012;69;20179;-73
2021/08/28 04:23:25;;;;;;;2.29;1.38;;;;;;;12.83;86.62;99457.94;2296849;69;20215;-73
2021/08/28 04:26:28;;;;;;;2.65;1.15;;;;;;;12.85;86.56;99461.38;2297136;69;20185;-72
2021/08/28 04:29:30;;;;;;;4.81;1.35;;;;;;;12.87;86.30;99459.63;2297776;69;20175;-73
2021/08/28 04:32:34;;;;;;;3.47;1.00;;;;;;;12.88;86.22;99454.38;2295118;67;20719;-73
2021/08/28 04:35:36;;;;;;;2.49;1.02;;;;;;;12.91;86.12;99464.75;2296556;69;20175;-73
2021/08/28 04:38:39;;;;;;;4.26;1.29;;;;;;;12.92;86.02;99460.41;2296881;69;20187;-73
2021/08/28 04:41:42;;;;;;;3.90;1.29;;;;;;;12.94;85.80;99458.69;2297503;69;20201;-72
2021/08/28 04:44:44;;;;;;;2.38;1.10;;;;;;;12.91;85.72;99459.56;2297134;69;20154;-72
2021/08/28 04:47:47;;;;;;;3.65;1.46;;;;;;;12.91;85.45;99454.34;2296556;67;25023;-73
2021/08/28 04:50:50;;;;;;;3.24;1.31;;;;;;;12.89;85.27;99463.06;2297966;69;20851;-72
2021/08/28 04:53:52;;;;;;;3.24;1.49;;;;;;;12.87;85.33;99451.81;2296230;69;20179;-73
2021/08/28 04:56:55;;;;;;;2.25;1.38;;;;;;;12.88;85.38;99453.53;2296365;69;20316;-73
2021/08/28 04:59:57;;;;;;;2.85;1.23;;;;;;;12.88;85.50;99454.38;2296472;69;20145;-72
2021/08/28 05:03:00;;;;;;;3.46;1.23;;;;;;;12.88;85.68;99453.53;2296335;67;22429;-74
2021/08/28 05:06:03;;;;;;;2.19;1.39;;;;;;;12.90;85.65;99449.16;2291927;69;20171;-73
2021/08/28 05:09:06;;;;;;;2.58;0.90;;;;;;;12.91;85.50;99451.72;2297442;69;20150;-73
2021/08/28 05:12:09;;;;;;;3.05;1.00;;;;;;;12.93;85.22;99454.34;2298148;69;20183;-73
2021/08/28 05:15:11;;;;;;;4.14;1.23;;;;;;;12.93;85.14;99460.41;2295755;69;20614;-73
2021/08/28 05:18:14;;;;;;;2.64;1.00;;;;;;;12.94;85.24;99464.75;2297333;67;20213;-74
2021/08/28 05:21:17;;;;;;;2.96;1.55;;;;;;;12.96;85.21;99469.94;2291714;69;20298;-73
2021/08/28 05:24:19;;;;;;;3.51;1.21;;;;;;;12.97;85.30;99477.75;2293447;69;20146;-73
2021/08/28 05:27:22;;;;;;;3.99;1.17;;;;;;;12.98;85.35;99473.38;2297370;69;20167;-73
2021/08/28 05:30:24;;;;;;;2.96;1.21;;;;;;;13.00;85.25;99474.22;2296424;67;20479;-74
2021/08/28 05:33:27;;;;;;;3.16;1.29;;;;;;;13.02;85.37;99481.13;2297209;69;20572;-76
2021/08/28 05:36:29;;;;;;;4.00;1.54;;;;;;;13.05;85.52;99485.44;2297325;69;20167;-76
2021/08/28 05:39:32;;;;;;;3.95;1.21;;;;;;;13.10;85.35;99491.44;2297325;69;20214;-76
2021/08/28 05:42:35;;;;;;;3.55;1.54;;;;;;;13.13;85.25;99496.66;2296812;69;20146;-76
2021/08/28 05:45:37;;;;;;;4.11;1.11;;;;;;;13.14;85.00;99490.56;2296960;67;22057;-76
2021/08/28 05:48:40;;;;;;;3.42;1.50;;;;;;;13.17;84.96;99485.28;2297223;69;20167;-74
2021/08/28 05:51:43;;;;;;;3.15;1.26;;;;;;;13.19;85.08;99482.69;2297642;69;20154;-74
2021/08/28 05:54:45;;;;;;;4.29;1.55;;;;;;;13.20;85.13;99485.28;2296978;69;20591;-72
2021/08/28 05:57:48;;;;;;;3.97;1.08;;;;;;;13.21;84.99;99491.34;2297407;69;20158;-72
2021/08/28 06:00:51;;;;;;;2.75;1.24;;;;;;;13.22;84.80;99490.47;2295534;67;23336;-73
2021/08/28 06:03:54;;;;;;;5.28;1.11;;;;;;;13.24;84.96;99492.16;2297187;69;20175;-72
2021/08/28 06:06:56;;;;;;;2.13;1.06;;;;;;;13.27;84.86;99488.66;2296460;69;20807;-75
2021/08/28 06:09:59;;;;;;;4.86;1.67;;;;;;;13.26;84.82;99500.84;2297391;69;20227;-73
2021/08/28 06:13:02;;;;;;;3.22;1.77;;;;;;;13.29;84.81;99499.97;2297192;69;20137;-73
2021/08/28 06:16:05;;;;;;;4.25;1.20;;;;;;;13.31;84.77;99492.97;2299333;67;23766;-73
2021/08/28 06:19:07;;;;;;;2.24;1.11;;;;;;;13.35;84.66;99496.41;2297496;69;20161;-73
2021/08/28 06:22:10;;;;;;;3.25;1.30;;;;;;;13.40;84.38;99499.78;2296184;69;20227;-74
2021/08/28 06:25:13;;;;;;;2.74;1.27;;;;;;;13.44;84.21;99498.84;2296502;69;20516;-75
2021/08/28 06:28:16;;;;;;;4.68;1.33;;;;;;;13.42;84.39;99493.66;2297164;69;20344;-73
2021/08/28 06:31:18;;;;;;;3.09;1.40;;;;;;;13.46;84.34;99477.06;2295990;67;24287;-73
2021/08/28 06:34:21;;;;;;;3.71;1.52;;;;;;;13.50;84.12;99481.38;2297232;69;20154;-74
2021/08/28 06:37:24;;;;;;;8.21;1.63;;;;;;;13.53;83.85;99488.31;2296530;69;20676;-73
2021/08/28 06:40:27;;;;;;;4.97;1.38;;;;;;;13.55;83.72;99484.78;2296811;69;20195;-74
2021/08/28 06:43:31;;;;;;;5.54;1.63;;;;;;;13.62;83.77;99488.16;2291374;69;20192;-74
2021/08/28 06:46:34;;;;;;;4.76;1.40;;;;;;;13.74;83.58;99485.38;2295524;67;21785;-73
2021/08/28 06:49:37;;;;;;;2.75;1.10;;;;;;;13.93;83.63;99482.47;2297747;69;20173;-74
2021/08/28 06:52:40;;;;;;;4.35;1.10;;;;;;;14.17;83.13;99482.88;2296356;69;20154;-72
2021/08/28 06:55:43;;;;;;;3.81;1.54;;;;;;;14.34;82.24;99472.13;2296465;69;20182;-73
2021/08/28 06:58:46;;;;;;;4.18;1.25;;;;;;;14.54;81.64;99474.41;2297255;69;20175;-73
2021/08/28 07:01:48;;;;;;;4.21;1.00;;;;;;;14.73;81.17;99470.56;2295603;67;20165;-72
2021/08/28 07:04:51;;;;;;;4.13;1.48;;;;;;;14.88;80.66;99460.66;2296333;69;20145;-73
2021/08/28 07:07:54;;;;;;;3.20;1.02;;;;;;;14.97;79.76;99471.81;2297216;69;20863;-73
2021/08/28 07:10:57;;;;;;;3.60;1.02;;;;;;;15.02;79.66;99476.94;2295819;69;20206;-72
2021/08/28 07:13:59;;;;;;;5.01;1.17;;;;;;;15.09;79.69;99481.16;2296885;69;20527;-72
2021/08/28 07:17:02;;;;;;;4.00;1.14;;;;;;;15.18;79.86;99473.09;2295260;67;21081;-74
2021/08/28 07:20:07;;;;;;;3.71;1.10;;;;;;;15.28;80.13;99471.16;2297170;69;20810;-73
2021/08/28 07:23:10;;;;;;;2.97;1.00;;;;;;;15.29;80.10;99465.91;2297321;69;20149;-73
2021/08/28 07:26:15;;;;;;;3.34;1.30;;;;;;;15.30;79.94;99459.78;2291966;69;20134;-72
2021/08/28 07:29:17;;;;;;;3.49;1.17;;;;;;;15.39;79.99;99456.06;2293161;69;20154;-72
2021/08/28 07:32:20;;;;;;;2.81;0.80;;;;;;;15.46;79.82;99460.28;2297328;67;23057;-73
2021/08/28 07:35:23;;;;;;;3.29;1.39;;;;;;;15.54;79.89;99460.94;2298553;69;20205;-73
2021/08/28 07:38:28;;;;;;;1.33;0.69;;;;;;;15.66;79.80;99457.22;2299447;69;20178;-72
2021/08/28 07:41:31;;;;;;;2.06;0.96;;;;;;;15.80;79.54;99462.09;2298334;69;20179;-72
2021/08/28 07:44:34;;;;;;;3.97;1.14;;;;;;;15.96;79.06;99456.44;2297036;69;20297;-73
2021/08/28 07:47:37;;;;;;;1.89;0.95;;;;;;;16.16;78.30;99460.34;2295984;67;20187;-72
2021/08/28 07:50:39;;;;;;;2.39;0.90;;;;;;;16.28;77.75;99453.00;2297716;69;20727;-72
2021/08/28 07:53:42;;;;;;;3.53;1.10;;;;;;;16.39;76.53;99452.72;2299544;69;20199;-72
2021/08/28 07:56:45;;;;;;;2.34;1.51;;;;;;;16.42;75.46;99459.66;2297555;69;20154;-73
2021/08/28 07:59:47;;;;;;;2.97;0.96;;;;;;;16.45;75.30;99463.03;2302896;69;20191;-72
2021/08/28 08:02:50;;;;;;;2.83;1.56;;;;;;;16.45;75.04;99460.41;2295792;67;31692;-72
2021/08/28 08:05:53;;;;;;;3.39;0.90;;;;;;;16.45;75.11;99463.03;2295860;69;20682;-73
2021/08/28 08:08:56;;;;;;;2.35;1.01;;;;;;;16.41;74.63;99473.66;2297427;69;20183;-72
2021/08/28 08:11:58;;;;;;;2.74;0.94;;;;;;;16.36;75.14;99478.16;2297017;69;20161;-72
2021/08/28 08:15:01;;;;;;;4.82;0.93;;;;;;;16.30;75.77;99482.66;2295998;69;20196;-72
2021/08/28 08:18:04;;;;;;;1.84;0.80;;;;;;;16.20;74.62;99477.72;2295684;67;20154;-72
2021/08/28 08:21:07;;;;;;;1.66;0.71;;;;;;;16.10;74.77;99482.31;2296662;69;20163;-72
2021/08/28 08:24:09;;;;;;;4.66;0.90;;;;;;;16.09;75.69;99482.34;2297073;69;20217;-72
2021/08/28 08:27:12;;;;;;;1.25;0.85;;;;;;;16.10;75.24;99476.22;2296575;69;20138;-72
2021/08/28 08:30:15;;;;;;;3.26;0.79;;;;;;;16.12;76.11;99480.50;2295400;69;20269;-72
2021/08/28 08:33:17;;;;;;;3.10;0.82;;;;;;;16.17;76.48;99475.16;2294469;67;20904;-72
2021/08/28 08:36:20;;;;;;;2.41;1.01;;;;;;;16.23;76.01;99472.38;2294219;69;20150;-72
2021/08/28 08:39:22;;;;;;;2.81;0.80;;;;;;;16.24;75.64;99476.72;2296296;69;20192;-75
2021/08/28 08:42:26;;;;;;;3.26;0.94;;;;;;;16.28;75.77;99473.09;2296277;69;20145;-75
2021/08/28 08:45:29;;;;;;;1.86;0.79;;;;;;;16.35;75.73;99472.06;2296174;67;25026;-74
2021/08/28 08:48:32;;;;;;;4.46;1.02;;;;;;;16.41;75.37;99471.03;2297059;69;20467;-74
2021/08/28 08:51:36;;;;;;;2.78;1.52;;;;;;;16.52;75.51;99482.97;2297413;69;20138;-75
2021/08/28 08:54:40;;;;;;;3.35;1.00;;;;;;;16.67;75.33;99478.22;2296894;69;20197;-74
2021/08/28 08:57:43;;;;;;;3.64;1.08;;;;;;;16.76;74.76;99478.81;2297600;69;20192;-75
2021/08/28 09:00:45;;;;;;;1.90;1.21;;;;;;;16.85;74.20;99475.06;2297335;67;20270;-74
2021/08/28 09:03:50;;;;;;;2.63;0.95;;;;;;;16.87;73.70;99481.97;2296723;69;20310;-74
2021/08/28 09:06:53;;;;;;;1.69;0.90;;;;;;;16.85;73.22;99481.16;2297615;69;20166;-75
2021/08/28 09:09:55;;;;;;;1.58;0.73;;;;;;;16.80;73.04;99476.97;2291855;69;20158;-74
2021/08/28 09:13:15;;;;;;;2.71;0.99;;;;;;;16.79;73.66;99478.72;2297547;69;20165;-74
2021/08/28 09:16:29;;;;;;;3.92;1.06;;;;;;;16.74;73.62;99482.41;2297445;67;20516;-74
2021/08/28 09:19:37;;;;;;;3.64;0.90;;;;;;;16.68;73.95;99486.03;2297335;69;20183;-74
2021/08/28 09:22:40;;;;;;;3.11;0.93;;;;;;;16.65;73.99;99485.22;2297899;69;20330;-75
2021/08/28 09:25:45;;;;;;;2.45;0.88;;;;;;;16.62;74.74;99484.41;2296383;69;20343;-75
2021/08/28 09:28:53;;;;;;;1.83;0.94;;;;;;;16.64;75.22;99479.13;2297727;69;20736;-76
2021/08/28 09:31:55;;;;;;;2.72;1.00;;;;;;;16.60;75.61;99483.59;2296738;67;21465;-73
2021/08/28 09:35:08;;;;;;;1.89;0.86;;;;;;;16.58;76.03;99489.78;2298408;69;20157;-73
2021/08/28 09:38:12;;;;;;;2.90;0.93;;;;;;;16.56;76.47;99492.44;2298389;69;20203;-73
2021/08/28 09:41:29;;;;;;;3.00;1.06;;;;;;;16.57;77.21;99483.69;2296924;69;20239;-73
2021/08/28 09:44:37;;;;;;;2.92;0.90;;;;;;;16.57;77.57;99488.06;2297337;69;20166;-73
2021/08/28 09:47:41;;;;;;;4.10;1.03;;;;;;;16.62;78.19;99494.91;2296264;67;20477;-72
2021/08/28 09:50:51;;;;;;;2.94;0.95;;;;;;;16.61;77.78;99493.19;2296812;69;20304;-73
2021/08/28 09:54:14;;;;;;;1.39;0.82;;;;;;;16.56;77.31;99496.84;2297528;69;20294;-73
2021/08/28 09:57:17;;;;;;;2.38;0.90;;;;;;;16.44;77.64;99500.63;2297630;69;20642;-73
2021/08/28 10:00:19;;;;;;;1.02;0.80;;;;;;;16.39;78.60;99499.03;2295119;67;31433;-73
2021/08/28 10:03:28;;;;;;;4.49;0.94;;;;;;;16.38;79.16;99492.94;2297560;69;20369;-72
2021/08/28 10:06:31;;;;;;;1.69;1.20;;;;;;;16.45;79.75;99491.00;2295591;69;20327;-73
2021/08/28 10:09:34;;;;;;;2.85;1.06;;;;;;;16.53;79.13;99489.06;2298443;69;20157;-73
2021/08/28 10:12:37;;;;;;;3.90;0.90;;;;;;;16.64;79.29;99487.00;2296836;69;20149;-72
2021/08/28 10:15:41;;;;;;;2.10;1.10;;;;;;;16.77;78.13;99488.41;2295981;67;23729;-72
2021/08/28 10:18:46;;;;;;;3.58;1.10;;;;;;;16.88;77.89;99478.50;2297568;69;20691;-72
2021/08/28 10:21:51;;;;;;;3.44;1.15;;;;;;;17.07;77.94;99477.97;2297691;69;20173;-72
2021/08/28 10:24:57;;;;;;;1.69;1.05;;;;;;;17.24;77.78;99478.31;2297104;69;20153;-72
2021/08/28 10:28:02;;;;;;;2.76;0.91;;;;;;;17.39;76.51;99483.06;2297735;69;20204;-74
2021/08/28 10:31:06;;;;;;;4.84;1.38;;;;;;;17.63;75.96;99475.34;2296124;67;21524;-72
2021/08/28 10:34:09;;;;;;;3.28;1.10;;;;;;;17.79;74.59;99479.25;2297538;69;20872;-73
2021/08/28 10:37:11;;;;;;;3.41;1.09;;;;;;;17.89;73.36;99470.16;2297511;69;20213;-72
2021/08/28 10:40:23;;;;;;;2.42;1.20;;;;;;;18.00;72.85;99475.06;2296800;69;20678;-72
2021/08/28 10:43:28;;;;;;;2.66;1.05;;;;;;;18.01;72.44;99474.16;2297373;69;20885;-72
2021/08/28 10:46:31;;;;;;;2.94;1.26;;;;;;;18.03;72.30;99482.84;2297285;69;20810;-73
2021/08/28 10:49:34;;;;;;;4.41;1.30;;;;;;;17.96;71.85;99471.69;2297156;69;20181;-73
2021/08/28 10:52:38;;;;;;;1.94;0.80;;;;;;;17.97;72.86;99460.25;2296947;69;20137;-72
2021/08/28 10:55:44;;;;;;;1.73;1.10;;;;;;;17.89;72.22;99462.25;2297059;69;20677;-73
2021/08/28 10:58:47;;;;;;;2.09;1.20;;;;;;;17.76;73.03;99460.94;2297447;69;20679;-72
2021/08/28 11:02:01;;;;;;;4.66;1.05;;;;;;;17.61;73.71;99467.53;2296690;66;20186;-72
2021/08/28 11:05:17;;;;;;;3.09;0.94;;;;;;;17.32;74.00;99465.81;2297322;69;20328;-72
2021/08/28 11:08:20;;;;;;;3.01;1.00;;;;;;;17.15;76.03;99466.31;2297315;69;20179;-73
2021/08/28 11:11:30;;;;;;;0.91;0.70;;;;;;;17.03;76.62;99468.44;2297156;69;20187;-72
2021/08/28 11:14:44;;;;;;;1.74;0.77;;;;;;;16.92;77.21;99461.75;2299475;69;20146;-72
2021/08/28 11:17:46;;;;;;;2.40;1.10;;;;;;;16.91;78.60;99461.78;2296925;67;21191;-73
2021/08/28 11:20:51;;;;;;;1.64;0.91;;;;;;;16.90;78.24;99466.19;2297813;69;20169;-71
2021/08/28 11:23:53;;;;;;;4.09;1.26;;;;;;;16.83;78.47;99469.00;2297460;69;20209;-70
2021/08/28 11:27:01;;;;;;;2.33;1.10;;;;;;;16.70;78.95;99468.53;2297433;69;20165;-73
2021/08/28 11:30:04;;;;;;;1.61;1.06;;;;;;;16.68;79.88;99456.31;2298330;69;20165;-71
2021/08/28 11:33:24;;;;;;;1.60;1.20;;;;;;;16.76;80.43;99457.84;2297323;67;20248;-71
2021/08/28 11:36:26;;;;;;;2.05;1.11;;;;;;;16.92;80.78;99453.03;2297181;69;20171;-72
2021/08/28 11:39:29;;;;;;;1.86;1.13;;;;;;;17.08;80.61;99456.06;2298524;69;20176;-72
2021/08/28 11:42:32;;;;;;;2.67;1.10;;;;;;;17.24;80.04;99464.34;2296690;69;20281;-72
2021/08/28 11:45:40;;;;;;;2.90;1.06;;;;;;;17.48;79.83;99455.69;2291236;69;20211;-72
2021/08/28 11:48:46;;;;;;;2.01;1.10;;;;;;;17.91;79.51;99457.81;2297698;69;20562;-72
2021/08/28 11:51:49;;;;;;;1.20;1.10;;;;;;;18.31;77.70;99452.09;2297455;69;20169;-72
2021/08/28 11:54:52;;;;;;;3.19;1.11;;;;;;;18.48;75.39;99443.56;2298021;69;20639;-72
2021/08/28 11:58:06;;;;;;;1.09;0.89;;;;;;;18.52;74.94;99437.31;2296863;69;20482;-72
2021/08/28 12:01:09;;;;;;;1.54;1.00;;;;;;;18.78;75.01;99441.63;2296606;67;20188;-72
2021/08/28 12:04:13;;;;;;;1.30;0.96;;;;;;;19.10;73.85;99434.31;2296495;69;20201;-73
2021/08/28 12:07:16;;;;;;;4.51;1.67;;;;;;;19.13;72.89;99435.03;2297690;69;20232;-71
2021/08/28 12:10:20;;;;;;;3.79;1.20;;;;;;;19.23;72.27;99440.84;2298443;69;20150;-72
2021/08/28 12:13:23;;;;;;;1.21;0.84;;;;;;;19.27;71.28;99445.06;2296762;69;20432;-71
2021/08/28 12:16:31;;;;;;;1.33;0.90;;;;;;;19.31;71.63;99431.69;2296068;67;20962;-72
2021/08/28 12:19:34;;;;;;;2.26;1.55;;;;;;;19.53;71.08;99428.22;2297228;69;20198;-71
2021/08/28 12:22:46;;;;;;;1.04;0.80;;;;;;;19.82;69.83;99427.91;2298605;69;20222;-71
2021/08/28 12:25:48;;;;;;;1.14;0.86;;;;;;;20.00;69.34;99431.56;2296864;69;20153;-71
2021/08/28 12:28:53;;;;;;;1.40;0.86;;;;;;;20.03;69.03;99436.69;2296719;69;20150;-71
2021/08/28 12:32:05;;;;;;;1.30;0.93;;;;;;;19.95;68.69;99437.97;2296395;67;20179;-71
2021/08/28 12:35:08;;;;;;;1.99;1.04;;;;;;;19.82;67.39;99427.06;2297710;69;20174;-71
2021/08/28 12:38:15;;;;;;;2.05;1.10;;;;;;;19.81;67.77;99420.06;2297020;69;20161;-71
2021/08/28 12:41:17;;;;;;;1.79;1.10;;;;;;;19.78;68.12;99415.78;2297214;69;20244;-71
2021/08/28 12:44:21;;;;;;;2.74;1.21;;;;;;;19.64;67.86;99409.38;2297921;69;20733;-71
2021/08/28 12:47:27;;;;;;;1.00;0.95;;;;;;;19.40;68.50;99398.91;2296135;66;20185;-73
2021/08/28 12:50:29;;;;;;;1.20;1.10;;;;;;;19.25;69.27;99408.25;2297590;69;20157;-71
2021/08/28 12:53:33;;;;;;;2.56;1.05;;;;;;;19.17;70.05;99418.22;2297209;69;20688;-71
2021/08/28 12:56:47;;;;;;;0.95;0.95;;;;;;;19.20;70.83;99418.09;2296738;69;20171;-71
2021/08/28 12:59:51;;;;;;;1.71;1.10;;;;;;;19.18;71.28;99413.81;2297892;69;20179;-71
2021/08/28 13:02:55;;;;;;;1.14;1.00;;;;;;;19.09;71.06;99414.19;2296972;67;20540;-71
2021/08/28 13:05:58;;;;;;;1.27;0.90;;;;;;;18.87;70.06;99429.94;2296751;69;20289;-71
2021/08/28 13:09:13;;;;;;;1.02;0.86;;;;;;;18.68;70.90;99433.25;2298856;69;20181;-71
2021/08/28 13:12:17;;;;;;;2.65;0.90;;;;;;;18.47;70.90;99435.75;2296289;69;20183;-70
2021/08/28 13:15:25;;;;;;;1.81;0.90;;;;;;;18.39;72.33;99436.88;2296296;67;20306;-70
2021/08/28 13:18:28;;;;;;;2.03;1.50;;;;;;;18.40;73.51;99428.09;2296619;69;20169;-70
2021/08/28 13:21:36;;;;;;;1.52;0.93;;;;;;;18.40;74.37;99427.22;2296358;69;20183;-71
2021/08/28 13:24:49;;;;;;;2.25;1.01;;;;;;;18.39;74.79;99430.75;2297411;69;20253;-71
2021/08/28 13:27:53;;;;;;;1.52;0.89;;;;;;;18.42;74.82;99434.13;2296822;69;20321;-71
2021/08/28 13:30:58;;;;;;;1.42;0.84;;;;;;;18.49;75.52;99437.44;2295770;67;21270;-71
2021/08/28 13:34:02;;;;;;;1.19;0.90;;;;;;;18.61;75.54;99431.69;2296681;69;21021;-71
2021/08/28 13:37:07;;;;;;;1.33;1.10;;;;;;;18.82;76.09;99431.84;2297520;69;20142;-70
2021/08/28 13:40:10;;;;;;;1.10;1.00;;;;;;;19.17;76.35;99425.25;2296115;69;20157;-72
2021/08/28 13:43:12;;;;;;;2.06;1.10;;;;;;;19.52;75.29;99426.50;2297831;69;20215;-71
2021/08/28 13:46:15;;;;;;;1.01;0.95;;;;;;;19.63;72.93;99419.06;2296011;67;20323;-72
2021/08/28 13:49:18;;;;;;;1.41;1.04;;;;;;;19.63;73.48;99421.69;2298092;69;20207;-71
2021/08/28 13:52:20;;;;;;;1.40;1.01;;;;;;;19.62;72.05;99417.34;2296398;69;21180;-71
2021/08/28 13:55:23;;;;;;;1.08;1.05;;;;;;;19.57;72.09;99419.31;2296499;69;20234;-72
2021/08/28 13:58:26;;;;;;;1.91;0.90;;;;;;;19.50;72.28;99413.38;2291671;69;20516;-71
2021/08/28 14:01:28;;;;;;;2.09;1.33;;;;;;;19.42;72.20;99414.63;2295645;67;21578;-72
2021/08/28 14:04:31;;;;;;;1.26;1.09;;;;;;;19.35;72.35;99416.63;2296662;69;20263;-72
2021/08/28 14:07:34;;;;;;;1.10;1.00;;;;;;;19.33;72.90;99413.22;2298394;69;20192;-71
2021/08/28 14:10:37;;;;;;;1.23;1.13;;;;;;;19.26;72.64;99417.00;2297809;69;20177;-71
2021/08/28 14:13:39;;;;;;;2.70;1.10;;;;;;;19.20;73.44;99417.22;2296092;69;20166;-71
2021/08/28 14:16:42;;;;;;;1.36;1.17;;;;;;;19.17;73.43;99420.00;2295986;67;22768;-72
2021/08/28 14:19:45;;;;;;;2.09;1.30;;;;;;;19.16;72.61;99410.38;2296352;69;20305;-71
2021/08/28 14:22:49;;;;;;;2.01;1.30;;;;;;;19.09;72.44;99412.41;2293230;69;20193;-71
2021/08/28 14:25:51;;;;;;;2.50;1.39;;;;;;;19.12;72.70;99408.78;2295809;69;20347;-72
2021/08/28 14:28:57;;;;;;;1.81;1.45;;;;;;;19.33;72.91;99413.22;2295977;69;20149;-71